Terminal Aerodrome Forecast
Issued by NWS

Home | Current Version | Previous Version | Text Only | Print | Product List | Glossary On
Versions: 1 2 3 4 5 6 7 8 9 10 11 12 13 14 15 16 17 18 19
000
FTUS45 KTFX 061122
TAFCTB
TAF
KCTB 061122Z 0612/0712 VRB05KT P6SM SKC
      TEMPO 0612/0614 2SM BR OVC006
     FM061400 16008KT P6SM SKC
     FM071000 34006KT P6SM SCT140 BKN200=

USA.gov is the U.S. government's official web portal to all federal, state and local government web resources and services.